sensor_id;sensor_type;location;lat;lon;timestamp;P1;durP1;ratioP1;P2;durP2;ratioP2
43152;SDS011;28756;49.064;9.290;2023-02-18T00:01:54;2.42;;;1.20;;
43152;SDS011;28756;49.064;9.290;2023-02-18T00:04:20;1.40;;;1.30;;
43152;SDS011;28756;49.064;9.290;2023-02-18T00:06:46;1.58;;;1.30;;
43152;SDS011;28756;49.064;9.290;2023-02-18T00:09:12;1.55;;;1.40;;
43152;SDS011;28756;49.064;9.290;2023-02-18T00:11:37;2.17;;;1.35;;
43152;SDS011;28756;49.064;9.290;2023-02-18T00:14:04;1.70;;;1.50;;
43152;SDS011;28756;49.064;9.290;2023-02-18T00:16:35;1.50;;;1.10;;
43152;SDS011;28756;49.064;9.290;2023-02-18T00:19:03;1.90;;;1.50;;
43152;SDS011;28756;49.064;9.290;2023-02-18T00:21:31;2.03;;;1.45;;
43152;SDS011;28756;49.064;9.290;2023-02-18T00:23:59;1.83;;;1.33;;
43152;SDS011;28756;49.064;9.290;2023-02-18T00:26:25;2.30;;;1.30;;
43152;SDS011;28756;49.064;9.290;2023-02-18T00:28:51;2.05;;;1.42;;
43152;SDS011;28756;49.064;9.290;2023-02-18T00:31:19;2.15;;;1.60;;
43152;SDS011;28756;49.064;9.290;2023-02-18T00:33:49;1.55;;;1.45;;
43152;SDS011;28756;49.064;9.290;2023-02-18T00:36:18;2.03;;;1.30;;
43152;SDS011;28756;49.064;9.290;2023-02-18T00:38:50;2.80;;;1.70;;
43152;SDS011;28756;49.064;9.290;2023-02-18T00:41:18;2.08;;;1.60;;
43152;SDS011;28756;49.064;9.290;2023-02-18T00:43:46;1.92;;;1.70;;
43152;SDS011;28756;49.064;9.290;2023-02-18T00:46:12;1.95;;;1.50;;
43152;SDS011;28756;49.064;9.290;2023-02-18T00:48:38;2.10;;;1.40;;
43152;SDS011;28756;49.064;9.290;2023-02-18T00:51:05;2.00;;;1.52;;
43152;SDS011;28756;49.064;9.290;2023-02-18T00:53:31;1.55;;;1.40;;
43152;SDS011;28756;49.064;9.290;2023-02-18T00:55:58;1.77;;;1.40;;
43152;SDS011;28756;49.064;9.290;2023-02-18T00:58:25;1.80;;;1.48;;
43152;SDS011;28756;49.064;9.290;2023-02-18T01:00:51;1.70;;;1.50;;
43152;SDS011;28756;49.064;9.290;2023-02-18T01:03:17;1.60;;;1.40;;
43152;SDS011;28756;49.064;9.290;2023-02-18T01:05:43;1.48;;;1.30;;
43152;SDS011;28756;49.064;9.290;2023-02-18T01:08:09;2.25;;;1.20;;
43152;SDS011;28756;49.064;9.290;2023-02-18T01:10:38;1.40;;;1.30;;
43152;SDS011;28756;49.064;9.290;2023-02-18T01:13:07;1.67;;;1.50;;
43152;SDS011;28756;49.064;9.290;2023-02-18T01:15:32;1.40;;;1.30;;
43152;SDS011;28756;49.064;9.290;2023-02-18T01:17:58;2.65;;;1.30;;
43152;SDS011;28756;49.064;9.290;2023-02-18T01:20:24;1.92;;;1.30;;
43152;SDS011;28756;49.064;9.290;2023-02-18T01:22:50;1.60;;;1.50;;
43152;SDS011;28756;49.064;9.290;2023-02-18T01:25:16;2.13;;;1.67;;
43152;SDS011;28756;49.064;9.290;2023-02-18T01:27:42;2.25;;;1.50;;
43152;SDS011;28756;49.064;9.290;2023-02-18T01:30:09;2.00;;;1.50;;
43152;SDS011;28756;49.064;9.290;2023-02-18T01:32:39;2.03;;;1.70;;
43152;SDS011;28756;49.064;9.290;2023-02-18T01:35:05;1.90;;;1.60;;
43152;SDS011;28756;49.064;9.290;2023-02-18T01:37:32;2.03;;;1.80;;
43152;SDS011;28756;49.064;9.290;2023-02-18T01:39:58;1.83;;;1.60;;
43152;SDS011;28756;49.064;9.290;2023-02-18T01:42:27;2.38;;;1.60;;
43152;SDS011;28756;49.064;9.290;2023-02-18T01:44:54;2.17;;;1.70;;
43152;SDS011;28756;49.064;9.290;2023-02-18T01:48:39;2.00;;;1.80;;
43152;SDS011;28756;49.064;9.290;2023-02-18T01:51:10;1.88;;;1.58;;
43152;SDS011;28756;49.064;9.290;2023-02-18T01:56:30;2.30;;;2.00;;
43152;SDS011;28756;49.064;9.290;2023-02-18T01:59:15;1.80;;;1.52;;
43152;SDS011;28756;49.064;9.290;2023-02-18T02:01:48;1.70;;;1.60;;
43152;SDS011;28756;49.064;9.290;2023-02-18T02:04:13;1.90;;;1.80;;
43152;SDS011;28756;49.064;9.290;2023-02-18T02:06:39;2.42;;;1.70;;
43152;SDS011;28756;49.064;9.290;2023-02-18T02:09:06;2.30;;;1.52;;
43152;SDS011;28756;49.064;9.290;2023-02-18T02:17:32;2.15;;;1.60;;
43152;SDS011;28756;49.064;9.290;2023-02-18T02:26:08;2.03;;;1.83;;
43152;SDS011;28756;49.064;9.290;2023-02-18T02:29:15;1.98;;;1.77;;
43152;SDS011;28756;49.064;9.290;2023-02-18T02:32:35;2.53;;;1.90;;
43152;SDS011;28756;49.064;9.290;2023-02-18T02:35:39;2.28;;;1.75;;
43152;SDS011;28756;49.064;9.290;2023-02-18T02:38:28;2.63;;;1.80;;
43152;SDS011;28756;49.064;9.290;2023-02-18T02:41:26;2.58;;;1.80;;
43152;SDS011;28756;49.064;9.290;2023-02-18T02:44:24;2.30;;;1.80;;
43152;SDS011;28756;49.064;9.290;2023-02-18T02:47:25;1.90;;;1.70;;
43152;SDS011;28756;49.064;9.290;2023-02-18T02:50:21;2.10;;;1.90;;
43152;SDS011;28756;49.064;9.290;2023-02-18T02:53:04;2.90;;;1.67;;
43152;SDS011;28756;49.064;9.290;2023-02-18T02:55:38;3.85;;;2.15;;
43152;SDS011;28756;49.064;9.290;2023-02-18T02:58:03;2.22;;;2.00;;
43152;SDS011;28756;49.064;9.290;2023-02-18T03:03:18;2.13;;;1.92;;
43152;SDS011;28756;49.064;9.290;2023-02-18T03:11:51;2.05;;;1.80;;
43152;SDS011;28756;49.064;9.290;2023-02-18T03:15:28;2.20;;;1.83;;
43152;SDS011;28756;49.064;9.290;2023-02-18T03:18:13;2.00;;;1.77;;
43152;SDS011;28756;49.064;9.290;2023-02-18T03:21:04;1.98;;;1.70;;
43152;SDS011;28756;49.064;9.290;2023-02-18T03:24:06;2.38;;;1.70;;
43152;SDS011;28756;49.064;9.290;2023-02-18T03:26:41;1.88;;;1.77;;
43152;SDS011;28756;49.064;9.290;2023-02-18T03:29:15;2.00;;;1.80;;
43152;SDS011;28756;49.064;9.290;2023-02-18T03:31:44;1.73;;;1.63;;
43152;SDS011;28756;49.064;9.290;2023-02-18T03:34:15;1.60;;;1.50;;
43152;SDS011;28756;49.064;9.290;2023-02-18T03:36:47;2.58;;;1.90;;
43152;SDS011;28756;49.064;9.290;2023-02-18T03:39:14;3.13;;;1.85;;
43152;SDS011;28756;49.064;9.290;2023-02-18T03:41:42;2.10;;;1.90;;
43152;SDS011;28756;49.064;9.290;2023-02-18T03:44:10;1.52;;;1.40;;
43152;SDS011;28756;49.064;9.290;2023-02-18T03:46:37;1.75;;;1.50;;
43152;SDS011;28756;49.064;9.290;2023-02-18T03:49:07;1.83;;;1.73;;
43152;SDS011;28756;49.064;9.290;2023-02-18T03:51:35;1.92;;;1.58;;
43152;SDS011;28756;49.064;9.290;2023-02-18T03:54:01;2.53;;;2.00;;
43152;SDS011;28756;49.064;9.290;2023-02-18T03:56:27;2.00;;;1.80;;
43152;SDS011;28756;49.064;9.290;2023-02-18T03:58:53;2.20;;;2.00;;
43152;SDS011;28756;49.064;9.290;2023-02-18T04:01:18;2.88;;;1.83;;
43152;SDS011;28756;49.064;9.290;2023-02-18T04:03:44;3.15;;;2.10;;
43152;SDS011;28756;49.064;9.290;2023-02-18T04:06:10;3.75;;;2.17;;
43152;SDS011;28756;49.064;9.290;2023-02-18T04:08:36;2.67;;;2.40;;
43152;SDS011;28756;49.064;9.290;2023-02-18T04:11:02;2.85;;;2.33;;
43152;SDS011;28756;49.064;9.290;2023-02-18T04:13:29;2.60;;;2.10;;
43152;SDS011;28756;49.064;9.290;2023-02-18T04:15:55;2.63;;;2.40;;
43152;SDS011;28756;49.064;9.290;2023-02-18T04:18:21;3.08;;;2.58;;
43152;SDS011;28756;49.064;9.290;2023-02-18T04:20:47;3.90;;;2.70;;
43152;SDS011;28756;49.064;9.290;2023-02-18T04:23:13;2.95;;;2.65;;
43152;SDS011;28756;49.064;9.290;2023-02-18T04:25:39;3.90;;;2.42;;
43152;SDS011;28756;49.064;9.290;2023-02-18T04:28:05;3.10;;;2.60;;
43152;SDS011;28756;49.064;9.290;2023-02-18T04:30:31;2.92;;;2.60;;
43152;SDS011;28756;49.064;9.290;2023-02-18T04:32:57;2.97;;;2.53;;
43152;SDS011;28756;49.064;9.290;2023-02-18T04:35:23;3.13;;;2.50;;
43152;SDS011;28756;49.064;9.290;2023-02-18T04:37:49;2.70;;;2.50;;
43152;SDS011;28756;49.064;9.290;2023-02-18T04:40:15;3.53;;;2.40;;
43152;SDS011;28756;49.064;9.290;2023-02-18T04:42:40;2.85;;;2.50;;
43152;SDS011;28756;49.064;9.290;2023-02-18T04:45:06;2.97;;;2.60;;
43152;SDS011;28756;49.064;9.290;2023-02-18T04:47:33;4.95;;;2.70;;
43152;SDS011;28756;49.064;9.290;2023-02-18T04:49:58;3.95;;;2.83;;
43152;SDS011;28756;49.064;9.290;2023-02-18T04:52:24;3.15;;;2.40;;
43152;SDS011;28756;49.064;9.290;2023-02-18T04:54:50;2.80;;;2.50;;
43152;SDS011;28756;49.064;9.290;2023-02-18T04:57:16;2.97;;;2.50;;
43152;SDS011;28756;49.064;9.290;2023-02-18T04:59:41;3.20;;;2.35;;
43152;SDS011;28756;49.064;9.290;2023-02-18T05:02:07;4.00;;;2.40;;
43152;SDS011;28756;49.064;9.290;2023-02-18T05:04:33;2.50;;;2.15;;
43152;SDS011;28756;49.064;9.290;2023-02-18T05:06:59;3.92;;;2.40;;
43152;SDS011;28756;49.064;9.290;2023-02-18T05:09:24;2.60;;;2.10;;
43152;SDS011;28756;49.064;9.290;2023-02-18T05:11:50;2.83;;;2.30;;
43152;SDS011;28756;49.064;9.290;2023-02-18T05:14:16;2.10;;;1.83;;
43152;SDS011;28756;49.064;9.290;2023-02-18T05:16:42;2.42;;;2.22;;
43152;SDS011;28756;49.064;9.290;2023-02-18T05:19:09;2.10;;;1.85;;
43152;SDS011;28756;49.064;9.290;2023-02-18T05:21:38;2.80;;;2.00;;
43152;SDS011;28756;49.064;9.290;2023-02-18T05:24:04;2.72;;;2.05;;
43152;SDS011;28756;49.064;9.290;2023-02-18T05:26:30;2.15;;;1.90;;
43152;SDS011;28756;49.064;9.290;2023-02-18T05:28:56;2.15;;;1.95;;
43152;SDS011;28756;49.064;9.290;2023-02-18T05:31:22;3.08;;;2.10;;
43152;SDS011;28756;49.064;9.290;2023-02-18T05:33:48;2.95;;;1.77;;
43152;SDS011;28756;49.064;9.290;2023-02-18T05:36:13;2.63;;;1.95;;
43152;SDS011;28756;49.064;9.290;2023-02-18T05:38:39;1.90;;;1.70;;
43152;SDS011;28756;49.064;9.290;2023-02-18T05:41:05;1.98;;;1.77;;
43152;SDS011;28756;49.064;9.290;2023-02-18T05:43:31;3.55;;;2.00;;
43152;SDS011;28756;49.064;9.290;2023-02-18T05:46:16;2.78;;;1.80;;
43152;SDS011;28756;49.064;9.290;2023-02-18T05:48:42;1.73;;;1.60;;
43152;SDS011;28756;49.064;9.290;2023-02-18T05:51:08;2.92;;;1.90;;
43152;SDS011;28756;49.064;9.290;2023-02-18T05:53:33;2.65;;;1.60;;
43152;SDS011;28756;49.064;9.290;2023-02-18T05:55:59;2.00;;;1.80;;
43152;SDS011;28756;49.064;9.290;2023-02-18T05:58:25;2.10;;;1.90;;
43152;SDS011;28756;49.064;9.290;2023-02-18T06:00:50;2.60;;;1.85;;
43152;SDS011;28756;49.064;9.290;2023-02-18T06:03:16;2.70;;;1.80;;
43152;SDS011;28756;49.064;9.290;2023-02-18T06:05:42;2.53;;;1.90;;
43152;SDS011;28756;49.064;9.290;2023-02-18T06:08:07;2.13;;;1.60;;
43152;SDS011;28756;49.064;9.290;2023-02-18T06:10:33;2.45;;;1.70;;
43152;SDS011;28756;49.064;9.290;2023-02-18T06:12:59;1.95;;;1.70;;
43152;SDS011;28756;49.064;9.290;2023-02-18T06:15:26;2.60;;;1.70;;
43152;SDS011;28756;49.064;9.290;2023-02-18T06:17:52;2.85;;;1.67;;
43152;SDS011;28756;49.064;9.290;2023-02-18T06:20:18;2.15;;;1.58;;
43152;SDS011;28756;49.064;9.290;2023-02-18T06:22:43;1.83;;;1.45;;
43152;SDS011;28756;49.064;9.290;2023-02-18T06:25:09;1.88;;;1.67;;
43152;SDS011;28756;49.064;9.290;2023-02-18T06:27:35;2.03;;;1.73;;
43152;SDS011;28756;49.064;9.290;2023-02-18T06:30:01;1.65;;;1.50;;
43152;SDS011;28756;49.064;9.290;2023-02-18T06:32:27;2.25;;;1.60;;
43152;SDS011;28756;49.064;9.290;2023-02-18T06:34:52;2.00;;;1.50;;
43152;SDS011;28756;49.064;9.290;2023-02-18T06:37:18;1.60;;;1.35;;
43152;SDS011;28756;49.064;9.290;2023-02-18T06:39:44;2.45;;;1.40;;
43152;SDS011;28756;49.064;9.290;2023-02-18T06:42:09;1.90;;;1.42;;
43152;SDS011;28756;49.064;9.290;2023-02-18T06:44:35;1.92;;;1.50;;
43152;SDS011;28756;49.064;9.290;2023-02-18T06:47:01;1.60;;;1.50;;
43152;SDS011;28756;49.064;9.290;2023-02-18T06:49:27;1.70;;;1.20;;
43152;SDS011;28756;49.064;9.290;2023-02-18T06:51:52;2.05;;;1.48;;
43152;SDS011;28756;49.064;9.290;2023-02-18T06:54:18;1.88;;;1.60;;
43152;SDS011;28756;49.064;9.290;2023-02-18T06:56:44;2.00;;;1.67;;
43152;SDS011;28756;49.064;9.290;2023-02-18T06:59:09;1.60;;;1.50;;
43152;SDS011;28756;49.064;9.290;2023-02-18T07:01:35;2.65;;;1.70;;
43152;SDS011;28756;49.064;9.290;2023-02-18T07:04:01;3.28;;;1.67;;
43152;SDS011;28756;49.064;9.290;2023-02-18T07:06:27;1.98;;;1.55;;
43152;SDS011;28756;49.064;9.290;2023-02-18T07:08:52;2.47;;;1.70;;
43152;SDS011;28756;49.064;9.290;2023-02-18T07:11:18;2.00;;;1.55;;
43152;SDS011;28756;49.064;9.290;2023-02-18T07:13:44;2.63;;;1.80;;
43152;SDS011;28756;49.064;9.290;2023-02-18T07:16:10;2.45;;;1.80;;
43152;SDS011;28756;49.064;9.290;2023-02-18T07:18:35;2.35;;;1.80;;
43152;SDS011;28756;49.064;9.290;2023-02-18T07:21:01;2.03;;;1.83;;
43152;SDS011;28756;49.064;9.290;2023-02-18T07:23:27;1.85;;;1.60;;
43152;SDS011;28756;49.064;9.290;2023-02-18T07:26:01;2.35;;;1.70;;
43152;SDS011;28756;49.064;9.290;2023-02-18T07:28:28;2.15;;;1.65;;
43152;SDS011;28756;49.064;9.290;2023-02-18T07:30:54;2.58;;;1.63;;
43152;SDS011;28756;49.064;9.290;2023-02-18T07:33:20;3.13;;;1.58;;
43152;SDS011;28756;49.064;9.290;2023-02-18T07:35:45;2.67;;;1.70;;
43152;SDS011;28756;49.064;9.290;2023-02-18T07:38:16;2.95;;;1.60;;
43152;SDS011;28756;49.064;9.290;2023-02-18T07:40:43;2.15;;;1.42;;
43152;SDS011;28756;49.064;9.290;2023-02-18T07:43:09;2.00;;;1.50;;
43152;SDS011;28756;49.064;9.290;2023-02-18T07:45:37;2.00;;;1.58;;
43152;SDS011;28756;49.064;9.290;2023-02-18T07:48:03;3.60;;;1.80;;
43152;SDS011;28756;49.064;9.290;2023-02-18T07:50:29;2.25;;;1.60;;
43152;SDS011;28756;49.064;9.290;2023-02-18T07:52:59;2.20;;;1.52;;
43152;SDS011;28756;49.064;9.290;2023-02-18T07:55:28;1.88;;;1.48;;
43152;SDS011;28756;49.064;9.290;2023-02-18T08:00:43;2.45;;;1.60;;
43152;SDS011;28756;49.064;9.290;2023-02-18T08:03:11;2.28;;;1.40;;
43152;SDS011;28756;49.064;9.290;2023-02-18T08:05:44;1.95;;;1.65;;
43152;SDS011;28756;49.064;9.290;2023-02-18T08:08:20;2.63;;;1.60;;
43152;SDS011;28756;49.064;9.290;2023-02-18T08:10:49;6.13;;;2.40;;
43152;SDS011;28756;49.064;9.290;2023-02-18T08:13:17;3.15;;;1.63;;
43152;SDS011;28756;49.064;9.290;2023-02-18T08:15:43;2.00;;;1.60;;
43152;SDS011;28756;49.064;9.290;2023-02-18T08:18:20;2.28;;;1.88;;
43152;SDS011;28756;49.064;9.290;2023-02-18T08:20:47;1.98;;;1.52;;
43152;SDS011;28756;49.064;9.290;2023-02-18T08:23:14;2.35;;;1.83;;
43152;SDS011;28756;49.064;9.290;2023-02-18T08:25:44;2.17;;;1.80;;
43152;SDS011;28756;49.064;9.290;2023-02-18T08:28:11;2.50;;;2.00;;
43152;SDS011;28756;49.064;9.290;2023-02-18T08:30:37;2.03;;;1.67;;
43152;SDS011;28756;49.064;9.290;2023-02-18T08:33:03;2.20;;;1.77;;
43152;SDS011;28756;49.064;9.290;2023-02-18T08:35:28;2.38;;;2.00;;
43152;SDS011;28756;49.064;9.290;2023-02-18T08:37:54;2.28;;;1.70;;
43152;SDS011;28756;49.064;9.290;2023-02-18T08:40:20;2.38;;;1.90;;
43152;SDS011;28756;49.064;9.290;2023-02-18T08:42:46;1.90;;;1.60;;
43152;SDS011;28756;49.064;9.290;2023-02-18T08:45:11;3.00;;;2.00;;
43152;SDS011;28756;49.064;9.290;2023-02-18T08:47:37;2.85;;;1.80;;
43152;SDS011;28756;49.064;9.290;2023-02-18T08:50:03;2.17;;;1.90;;
43152;SDS011;28756;49.064;9.290;2023-02-18T08:52:30;3.65;;;2.00;;
43152;SDS011;28756;49.064;9.290;2023-02-18T08:54:55;2.75;;;1.83;;
43152;SDS011;28756;49.064;9.290;2023-02-18T08:57:21;1.98;;;1.77;;
43152;SDS011;28756;49.064;9.290;2023-02-18T08:59:47;3.75;;;1.60;;
43152;SDS011;28756;49.064;9.290;2023-02-18T09:02:13;2.35;;;1.80;;
43152;SDS011;28756;49.064;9.290;2023-02-18T09:04:39;2.28;;;1.98;;
43152;SDS011;28756;49.064;9.290;2023-02-18T09:07:05;2.30;;;1.92;;
43152;SDS011;28756;49.064;9.290;2023-02-18T09:09:31;2.53;;;1.67;;
43152;SDS011;28756;49.064;9.290;2023-02-18T09:11:57;2.35;;;1.67;;
43152;SDS011;28756;49.064;9.290;2023-02-18T09:14:22;2.67;;;1.90;;
43152;SDS011;28756;49.064;9.290;2023-02-18T09:16:51;2.88;;;1.98;;
43152;SDS011;28756;49.064;9.290;2023-02-18T09:19:17;8.15;;;2.00;;
43152;SDS011;28756;49.064;9.290;2023-02-18T09:21:43;2.78;;;1.80;;
43152;SDS011;28756;49.064;9.290;2023-02-18T09:24:09;2.42;;;1.60;;
43152;SDS011;28756;49.064;9.290;2023-02-18T09:26:34;1.98;;;1.48;;
43152;SDS011;28756;49.064;9.290;2023-02-18T09:29:01;1.90;;;1.45;;
43152;SDS011;28756;49.064;9.290;2023-02-18T09:31:27;1.75;;;1.60;;
43152;SDS011;28756;49.064;9.290;2023-02-18T09:33:54;2.30;;;1.60;;
43152;SDS011;28756;49.064;9.290;2023-02-18T09:36:26;1.60;;;1.50;;
43152;SDS011;28756;49.064;9.290;2023-02-18T09:38:52;1.50;;;1.40;;
43152;SDS011;28756;49.064;9.290;2023-02-18T09:41:33;1.67;;;1.50;;
43152;SDS011;28756;49.064;9.290;2023-02-18T09:44:20;3.20;;;1.40;;
43152;SDS011;28756;49.064;9.290;2023-02-18T09:46:58;2.17;;;1.40;;
43152;SDS011;28756;49.064;9.290;2023-02-18T09:49:36;3.90;;;1.30;;
43152;SDS011;28756;49.064;9.290;2023-02-18T09:52:16;2.28;;;1.60;;
43152;SDS011;28756;49.064;9.290;2023-02-18T09:54:47;2.33;;;1.35;;
43152;SDS011;28756;49.064;9.290;2023-02-18T09:57:19;1.40;;;1.20;;
43152;SDS011;28756;49.064;9.290;2023-02-18T10:00:10;2.08;;;1.33;;
43152;SDS011;28756;49.064;9.290;2023-02-18T10:02:54;1.60;;;1.42;;
43152;SDS011;28756;49.064;9.290;2023-02-18T10:05:28;2.03;;;1.48;;
43152;SDS011;28756;49.064;9.290;2023-02-18T10:07:57;1.42;;;1.17;;
43152;SDS011;28756;49.064;9.290;2023-02-18T10:10:43;2.00;;;1.40;;
43152;SDS011;28756;49.064;9.290;2023-02-18T10:13:14;1.55;;;1.17;;
43152;SDS011;28756;49.064;9.290;2023-02-18T10:15:53;1.50;;;1.20;;
43152;SDS011;28756;49.064;9.290;2023-02-18T10:21:05;1.48;;;1.20;;
43152;SDS011;28756;49.064;9.290;2023-02-18T10:23:40;2.00;;;1.60;;
43152;SDS011;28756;49.064;9.290;2023-02-18T10:26:33;1.70;;;1.30;;
43152;SDS011;28756;49.064;9.290;2023-02-18T10:29:01;3.80;;;1.58;;
43152;SDS011;28756;49.064;9.290;2023-02-18T10:31:29;1.65;;;1.30;;
43152;SDS011;28756;49.064;9.290;2023-02-18T10:34:06;1.50;;;1.30;;
43152;SDS011;28756;49.064;9.290;2023-02-18T10:37:14;2.20;;;1.30;;
43152;SDS011;28756;49.064;9.290;2023-02-18T10:52:13;1.83;;;1.15;;
43152;SDS011;28756;49.064;9.290;2023-02-18T10:54:52;1.75;;;1.40;;
43152;SDS011;28756;49.064;9.290;2023-02-18T10:57:23;1.40;;;1.15;;
43152;SDS011;28756;49.064;9.290;2023-02-18T11:00:35;1.30;;;1.08;;
43152;SDS011;28756;49.064;9.290;2023-02-18T11:02:38;1.60;;;1.33;;
43152;SDS011;28756;49.064;9.290;2023-02-18T11:05:15;1.75;;;1.20;;
43152;SDS011;28756;49.064;9.290;2023-02-18T11:07:50;1.48;;;1.13;;
43152;SDS011;28756;49.064;9.290;2023-02-18T11:10:25;2.08;;;1.25;;
43152;SDS011;28756;49.064;9.290;2023-02-18T11:13:03;1.38;;;1.20;;
43152;SDS011;28756;49.064;9.290;2023-02-18T11:15:32;1.40;;;1.27;;
43152;SDS011;28756;49.064;9.290;2023-02-18T11:21:05;1.55;;;1.25;;
43152;SDS011;28756;49.064;9.290;2023-02-18T11:23:47;1.27;;;1.15;;
43152;SDS011;28756;49.064;9.290;2023-02-18T11:26:16;1.73;;;1.42;;
43152;SDS011;28756;49.064;9.290;2023-02-18T11:28:56;2.72;;;1.45;;
43152;SDS011;28756;49.064;9.290;2023-02-18T11:31:36;1.60;;;1.27;;
43152;SDS011;28756;49.064;9.290;2023-02-18T11:34:15;2.70;;;1.17;;
43152;SDS011;28756;49.064;9.290;2023-02-18T11:36:46;1.77;;;1.25;;
43152;SDS011;28756;49.064;9.290;2023-02-18T11:44:27;2.63;;;1.48;;
43152;SDS011;28756;49.064;9.290;2023-02-18T11:49:40;1.40;;;1.30;;
43152;SDS011;28756;49.064;9.290;2023-02-18T11:52:23;1.63;;;1.40;;
43152;SDS011;28756;49.064;9.290;2023-02-18T11:57:25;1.70;;;1.30;;
43152;SDS011;28756;49.064;9.290;2023-02-18T11:59:52;1.88;;;1.40;;
43152;SDS011;28756;49.064;9.290;2023-02-18T12:05:23;1.50;;;1.40;;
43152;SDS011;28756;49.064;9.290;2023-02-18T12:07:56;2.17;;;1.20;;
43152;SDS011;28756;49.064;9.290;2023-02-18T12:10:50;2.28;;;1.50;;
43152;SDS011;28756;49.064;9.290;2023-02-18T12:13:57;1.98;;;1.48;;
43152;SDS011;28756;49.064;9.290;2023-02-18T12:19:37;1.77;;;1.40;;
43152;SDS011;28756;49.064;9.290;2023-02-18T12:22:39;2.72;;;1.98;;
43152;SDS011;28756;49.064;9.290;2023-02-18T12:27:50;2.08;;;1.58;;
43152;SDS011;28756;49.064;9.290;2023-02-18T12:30:42;2.05;;;1.85;;
43152;SDS011;28756;49.064;9.290;2023-02-18T12:33:43;2.20;;;1.80;;
43152;SDS011;28756;49.064;9.290;2023-02-18T12:39:48;2.78;;;1.73;;
43152;SDS011;28756;49.064;9.290;2023-02-18T12:57:30;3.65;;;2.05;;
43152;SDS011;28756;49.064;9.290;2023-02-18T13:00:09;2.28;;;1.77;;
43152;SDS011;28756;49.064;9.290;2023-02-18T13:09:31;2.00;;;1.80;;
43152;SDS011;28756;49.064;9.290;2023-02-18T13:15:20;2.42;;;2.05;;
43152;SDS011;28756;49.064;9.290;2023-02-18T13:17:55;2.58;;;1.98;;
43152;SDS011;28756;49.064;9.290;2023-02-18T13:20:27;3.28;;;2.03;;
43152;SDS011;28756;49.064;9.290;2023-02-18T13:23:03;2.20;;;1.90;;
43152;SDS011;28756;49.064;9.290;2023-02-18T13:25:34;2.00;;;1.80;;
43152;SDS011;28756;49.064;9.290;2023-02-18T13:33:13;2.08;;;1.88;;
43152;SDS011;28756;49.064;9.290;2023-02-18T13:36:28;2.72;;;2.00;;
43152;SDS011;28756;49.064;9.290;2023-02-18T13:39:12;2.70;;;1.85;;
43152;SDS011;28756;49.064;9.290;2023-02-18T13:41:44;2.20;;;2.00;;
43152;SDS011;28756;49.064;9.290;2023-02-18T13:53:12;3.13;;;2.33;;
43152;SDS011;28756;49.064;9.290;2023-02-18T13:58:44;3.67;;;2.17;;
43152;SDS011;28756;49.064;9.290;2023-02-18T14:04:32;2.58;;;2.10;;
43152;SDS011;28756;49.064;9.290;2023-02-18T14:12:38;2.50;;;1.95;;
43152;SDS011;28756;49.064;9.290;2023-02-18T14:37:00;2.75;;;2.10;;
43152;SDS011;28756;49.064;9.290;2023-02-18T14:48:51;2.10;;;1.77;;
43152;SDS011;28756;49.064;9.290;2023-02-18T14:51:32;2.75;;;1.88;;
43152;SDS011;28756;49.064;9.290;2023-02-18T14:54:06;2.95;;;1.85;;
43152;SDS011;28756;49.064;9.290;2023-02-18T14:56:51;2.53;;;1.80;;
43152;SDS011;28756;49.064;9.290;2023-02-18T14:59:25;1.95;;;1.60;;
43152;SDS011;28756;49.064;9.290;2023-02-18T15:01:58;1.90;;;1.38;;
43152;SDS011;28756;49.064;9.290;2023-02-18T15:04:24;2.80;;;1.30;;
43152;SDS011;28756;49.064;9.290;2023-02-18T15:07:00;1.50;;;1.10;;
43152;SDS011;28756;49.064;9.290;2023-02-18T15:09:29;1.60;;;1.50;;
43152;SDS011;28756;49.064;9.290;2023-02-18T15:12:05;3.28;;;1.30;;
43152;SDS011;28756;49.064;9.290;2023-02-18T15:14:35;1.35;;;1.20;;
43152;SDS011;28756;49.064;9.290;2023-02-18T15:17:04;2.13;;;1.27;;
43152;SDS011;28756;49.064;9.290;2023-02-18T15:19:41;2.00;;;1.27;;
43152;SDS011;28756;49.064;9.290;2023-02-18T15:22:14;2.33;;;0.93;;
43152;SDS011;28756;49.064;9.290;2023-02-18T15:24:45;1.55;;;1.13;;
43152;SDS011;28756;49.064;9.290;2023-02-18T15:29:43;1.75;;;1.20;;
43152;SDS011;28756;49.064;9.290;2023-02-18T15:32:22;1.83;;;1.10;;
43152;SDS011;28756;49.064;9.290;2023-02-18T15:34:57;1.15;;;1.05;;
43152;SDS011;28756;49.064;9.290;2023-02-18T15:37:26;1.90;;;1.00;;
43152;SDS011;28756;49.064;9.290;2023-02-18T15:39:53;2.53;;;1.10;;
43152;SDS011;28756;49.064;9.290;2023-02-18T15:42:26;1.58;;;1.00;;
43152;SDS011;28756;49.064;9.290;2023-02-18T15:45:04;1.60;;;1.00;;
43152;SDS011;28756;49.064;9.290;2023-02-18T15:47:41;1.23;;;1.10;;
43152;SDS011;28756;49.064;9.290;2023-02-18T15:50:15;1.13;;;0.93;;
43152;SDS011;28756;49.064;9.290;2023-02-18T15:52:54;2.42;;;1.00;;
43152;SDS011;28756;49.064;9.290;2023-02-18T15:55:30;1.13;;;1.00;;
43152;SDS011;28756;49.064;9.290;2023-02-18T15:58:03;2.67;;;0.90;;
43152;SDS011;28756;49.064;9.290;2023-02-18T16:00:50;1.83;;;1.13;;
43152;SDS011;28756;49.064;9.290;2023-02-18T16:03:25;1.85;;;1.00;;
43152;SDS011;28756;49.064;9.290;2023-02-18T16:06:10;1.20;;;0.98;;
43152;SDS011;28756;49.064;9.290;2023-02-18T16:11:32;1.67;;;1.58;;
43152;SDS011;28756;49.064;9.290;2023-02-18T16:14:06;1.60;;;1.30;;
43152;SDS011;28756;49.064;9.290;2023-02-18T16:16:58;1.30;;;1.00;;
43152;SDS011;28756;49.064;9.290;2023-02-18T16:23:07;1.20;;;1.05;;
43152;SDS011;28756;49.064;9.290;2023-02-18T16:25:44;1.58;;;1.17;;
43152;SDS011;28756;49.064;9.290;2023-02-18T16:28:14;1.85;;;1.30;;
43152;SDS011;28756;49.064;9.290;2023-02-18T16:30:54;1.67;;;1.30;;
43152;SDS011;28756;49.064;9.290;2023-02-18T16:33:20;1.35;;;1.20;;
43152;SDS011;28756;49.064;9.290;2023-02-18T16:35:45;1.33;;;1.17;;
43152;SDS011;28756;49.064;9.290;2023-02-18T16:38:19;1.50;;;1.10;;
43152;SDS011;28756;49.064;9.290;2023-02-18T16:40:48;1.10;;;1.00;;
43152;SDS011;28756;49.064;9.290;2023-02-18T16:43:19;2.58;;;1.15;;
43152;SDS011;28756;49.064;9.290;2023-02-18T16:45:58;1.17;;;1.08;;
43152;SDS011;28756;49.064;9.290;2023-02-18T16:48:41;1.10;;;1.00;;
43152;SDS011;28756;49.064;9.290;2023-02-18T16:51:14;1.95;;;1.20;;
43152;SDS011;28756;49.064;9.290;2023-02-18T16:53:44;1.33;;;1.08;;
43152;SDS011;28756;49.064;9.290;2023-02-18T16:56:15;3.15;;;1.00;;
43152;SDS011;28756;49.064;9.290;2023-02-18T16:58:47;2.22;;;1.40;;
43152;SDS011;28756;49.064;9.290;2023-02-18T17:01:20;1.63;;;1.10;;
43152;SDS011;28756;49.064;9.290;2023-02-18T17:03:55;1.80;;;1.38;;
43152;SDS011;28756;49.064;9.290;2023-02-18T17:06:22;3.58;;;1.35;;
43152;SDS011;28756;49.064;9.290;2023-02-18T17:08:48;1.58;;;1.40;;
43152;SDS011;28756;49.064;9.290;2023-02-18T17:11:25;1.55;;;1.10;;
43152;SDS011;28756;49.064;9.290;2023-02-18T17:13:59;2.20;;;1.30;;
43152;SDS011;28756;49.064;9.290;2023-02-18T17:16:28;1.63;;;1.17;;
43152;SDS011;28756;49.064;9.290;2023-02-18T17:18:55;1.83;;;1.40;;
43152;SDS011;28756;49.064;9.290;2023-02-18T17:21:23;2.47;;;1.50;;
43152;SDS011;28756;49.064;9.290;2023-02-18T17:23:49;2.58;;;1.40;;
43152;SDS011;28756;49.064;9.290;2023-02-18T17:26:18;2.05;;;1.63;;
43152;SDS011;28756;49.064;9.290;2023-02-18T17:28:48;1.83;;;1.35;;
43152;SDS011;28756;49.064;9.290;2023-02-18T17:31:35;3.65;;;1.80;;
43152;SDS011;28756;49.064;9.290;2023-02-18T17:34:08;3.75;;;1.60;;
43152;SDS011;28756;49.064;9.290;2023-02-18T17:36:45;1.73;;;1.50;;
43152;SDS011;28756;49.064;9.290;2023-02-18T17:39:11;1.80;;;1.50;;
43152;SDS011;28756;49.064;9.290;2023-02-18T17:41:39;2.38;;;1.40;;
43152;SDS011;28756;49.064;9.290;2023-02-18T17:44:10;3.53;;;2.05;;
43152;SDS011;28756;49.064;9.290;2023-02-18T17:46:45;2.83;;;1.92;;
43152;SDS011;28756;49.064;9.290;2023-02-18T17:49:13;2.20;;;1.95;;
43152;SDS011;28756;49.064;9.290;2023-02-18T17:51:40;3.17;;;2.20;;
43152;SDS011;28756;49.064;9.290;2023-02-18T17:54:14;2.38;;;1.98;;